Time;durP1;ratioP1;P1;durP2;ratioP2;P2;SDS_P1;SDS_P2;PMS_P1;PMS_P2;Temp;Humidity;BMP_temperature;BMP_pressure;BME280_temperature;BME280_humidity;BME280_pressure;Samples;Min_cycle;Max_cycle;Signal;HPM_P1;HPM_P2
2022/03/06 00:00:36;;;;;;;55.10;24.80;;;2.70;86.70;;;-0.34;89.12;101250.84;4993104;28;20035;-84
2022/03/06 00:03:05;;;;;;;46.85;24.05;;;2.50;86.80;;;-0.36;89.55;101250.97;4993661;28;20049;-84
2022/03/06 00:05:32;;;;;;;54.38;25.25;;;2.40;87.00;;;-0.31;89.38;101250.69;4993429;28;20038;-84
2022/03/06 00:08:02;;;;;;;46.47;24.10;;;2.40;87.20;;;-0.39;89.26;101245.81;4992993;28;20400;-83
2022/03/06 00:10:29;;;;;;;48.20;25.80;;;2.40;87.30;;;-0.36;89.79;101253.66;4993119;28;20145;-84
2022/03/06 00:12:57;;;;;;;47.22;24.63;;;2.40;87.50;;;-0.42;90.40;101252.22;4992863;28;20116;-83
2022/03/06 00:15:26;;;;;;;51.05;24.83;;;2.30;87.80;;;-0.48;89.80;101249.91;4992755;28;20045;-84
2022/03/06 00:17:55;;;;;;;49.22;25.00;;;2.30;87.70;;;-0.51;90.11;101250.13;4993203;28;20050;-84
2022/03/06 00:20:22;;;;;;;51.45;24.35;;;2.30;87.60;;;-0.56;90.57;101249.53;4993027;28;20043;-84
2022/03/06 00:22:50;;;;;;;50.95;25.08;;;2.30;87.70;;;-0.57;90.82;101249.63;4993147;28;20053;-84
2022/03/06 00:25:17;;;;;;;54.10;24.52;;;2.30;87.80;;;-0.55;90.79;101247.72;4991905;28;20137;-84
2022/03/06 00:27:45;;;;;;;49.80;25.00;;;2.30;87.90;;;-0.63;90.64;101245.50;4992893;28;20117;-84
2022/03/06 00:30:13;;;;;;;46.63;24.55;;;2.20;87.80;;;-0.74;90.95;101247.97;4991707;28;20046;-84
2022/03/06 00:32:42;;;;;;;51.83;25.55;;;2.20;87.90;;;-0.67;91.72;101243.97;4993184;28;20058;-84
2022/03/06 00:35:10;;;;;;;51.03;24.65;;;2.20;88.20;;;-0.66;91.55;101251.06;4975476;28;20487;-84
2022/03/06 00:37:37;;;;;;;46.47;23.85;;;2.20;88.20;;;-0.64;91.47;101254.50;4992862;28;20125;-84
2022/03/06 00:40:07;;;;;;;46.28;23.88;;;2.20;88.20;;;-0.58;91.76;101254.13;4975108;28;20740;-84
2022/03/06 00:42:35;;;;;;;48.42;24.35;;;2.20;88.40;;;-0.56;91.76;101252.19;4992844;28;20056;-84
2022/03/06 00:45:03;;;;;;;47.25;24.15;;;2.10;88.30;;;-0.55;90.89;101248.59;4992586;28;20051;-84
2022/03/06 00:47:31;;;;;;;52.58;25.30;;;2.20;88.20;;;-0.54;91.16;101252.13;4991660;28;20136;-84
2022/03/06 00:49:59;;;;;;;48.08;23.85;;;2.20;88.20;;;-0.50;91.21;101259.84;4992377;28;20203;-84
2022/03/06 00:52:27;;;;;;;46.50;22.58;;;2.20;88.50;;;-0.51;91.48;101266.16;4992539;28;20133;-84
2022/03/06 00:54:55;;;;;;;52.10;24.80;;;2.20;88.70;;;-0.57;91.12;101269.22;4981404;28;20401;-84
2022/03/06 00:57:22;;;;;;;47.47;23.83;;;2.10;88.70;;;-0.58;91.65;101264.81;5011357;28;20133;-84
2022/03/06 00:59:49;;;;;;;47.10;24.23;;;2.10;88.60;;;-0.61;91.74;101270.34;5010778;28;20048;-85
2022/03/06 01:02:16;;;;;;;52.17;24.10;;;2.10;88.60;;;-0.62;91.64;101268.63;5009682;28;20574;-84
2022/03/06 01:04:44;;;;;;;46.95;24.27;;;2.20;88.60;;;-0.67;91.36;101270.72;5011352;28;20100;-84
2022/03/06 01:07:12;;;;;;;51.15;24.55;;;2.10;88.70;;;-0.75;91.75;101267.66;5010552;28;20050;-84
2022/03/06 01:09:40;;;;;;;54.13;24.90;;;2.10;88.70;;;-0.81;92.09;101272.41;5010526;28;20056;-85
2022/03/06 01:12:08;;;;;;;47.75;24.33;;;2.10;88.70;;;-0.78;92.09;101274.06;5010795;28;20042;-84
2022/03/06 01:14:35;;;;;;;48.47;24.50;;;2.00;88.90;;;-0.80;92.24;101276.81;5010909;28;20057;-84
2022/03/06 01:17:03;;;;;;;51.90;24.92;;;2.00;88.90;;;-0.86;92.33;101270.97;5010288;28;20141;-84
2022/03/06 01:19:30;;;;;;;53.85;26.52;;;2.00;88.90;;;-0.87;92.84;101275.47;5010645;28;20054;-84
2022/03/06 01:21:57;;;;;;;52.30;25.23;;;1.90;89.10;;;-0.88;92.20;101273.72;5010436;28;20037;-84
2022/03/06 01:24:26;;;;;;;45.63;24.33;;;1.90;89.20;;;-0.88;92.56;101273.72;5010365;28;20052;-84
2022/03/06 01:26:53;;;;;;;51.13;24.38;;;1.90;89.20;;;-0.89;92.29;101276.50;5010679;28;20481;-84
2022/03/06 01:29:22;;;;;;;53.28;24.48;;;1.90;89.10;;;-0.91;92.26;101279.28;5010536;28;20042;-84
2022/03/06 01:31:49;;;;;;;48.75;24.27;;;1.90;89.20;;;-0.94;92.48;101289.28;5010491;28;20054;-84
2022/03/06 01:34:17;;;;;;;51.15;24.25;;;1.90;89.20;;;-0.99;92.51;101286.84;5010540;28;20471;-84
2022/03/06 01:36:44;;;;;;;51.42;24.90;;;1.80;89.20;;;-1.03;92.35;101290.66;5010159;28;20038;-84
2022/03/06 01:39:11;;;;;;;49.97;24.35;;;1.90;89.20;;;-1.06;92.26;101296.22;5010328;28;20042;-84
2022/03/06 01:41:40;;;;;;;50.83;23.38;;;1.80;89.10;;;-1.02;92.65;101295.06;5010041;28;20046;-85
2022/03/06 01:44:13;;;;;;;52.25;24.25;;;1.80;89.30;;;-1.11;93.21;101287.59;5010418;28;20077;-84
2022/03/06 01:46:41;;;;;;;50.72;25.23;;;1.80;89.20;;;-1.04;93.18;101299.66;5008725;28;20046;-84
2022/03/06 01:49:08;;;;;;;49.42;24.88;;;1.80;89.30;;;-1.07;92.81;101291.81;5025436;28;20132;-84
2022/03/06 01:51:35;;;;;;;51.80;25.15;;;1.80;89.30;;;-1.08;92.82;101290.09;5009966;28;20038;-84
2022/03/06 01:54:03;;;;;;;45.85;22.13;;;1.80;89.40;;;-1.08;93.31;101292.78;5010024;28;20909;-84
2022/03/06 01:56:30;;;;;;;48.88;24.75;;;1.70;89.50;;;-1.09;93.35;101296.38;4953533;28;1132534;-84
2022/03/06 01:59:01;;;;;;;48.75;23.58;;;1.70;89.60;;;-1.15;93.67;101294.06;4990177;28;20073;-84
2022/03/06 02:01:29;;;;;;;45.90;25.20;;;1.70;89.80;;;-1.18;93.60;101297.81;4990990;28;20069;-84
2022/03/06 02:03:56;;;;;;;47.65;23.55;;;1.70;89.80;;;-1.22;93.89;101301.56;4973632;28;20412;-84
2022/03/06 02:06:24;;;;;;;49.22;24.48;;;1.60;89.60;;;-1.22;93.87;101298.91;4990326;28;20054;-84
2022/03/06 02:08:51;;;;;;;53.38;26.05;;;1.60;89.80;;;-1.31;93.72;101308.31;4991199;28;20421;-84
2022/03/06 02:11:19;;;;;;;46.83;24.08;;;1.60;89.60;;;-1.30;93.79;101310.03;4991255;28;20512;-84
2022/03/06 02:13:46;;;;;;;51.22;24.08;;;1.60;90.00;;;-1.25;94.19;101301.78;4991299;28;20069;-84
2022/03/06 02:16:15;;;;;;;48.40;24.27;;;1.60;90.00;;;-1.27;94.44;101304.53;4991054;28;20042;-84
2022/03/06 02:18:42;;;;;;;55.95;24.85;;;1.60;90.00;;;-1.31;94.42;101302.13;4990944;28;20065;-84
2022/03/06 02:21:12;;;;;;;55.20;23.75;;;1.60;90.00;;;-1.36;94.62;101306.88;4990805;28;20042;-84
2022/03/06 02:23:41;;;;;;;49.13;24.27;;;1.50;90.00;;;-1.38;93.96;101306.94;4990973;28;20056;-84
2022/03/06 02:26:09;;;;;;;48.58;25.30;;;1.50;90.00;;;-1.35;94.51;101308.56;4990749;28;20304;-84
2022/03/06 02:28:36;;;;;;;52.10;24.52;;;1.50;90.00;;;-1.38;94.48;101297.13;4990728;28;20489;-84
2022/03/06 02:31:04;;;;;;;51.95;26.48;;;1.50;90.10;;;-1.42;94.11;101300.91;4990436;28;20128;-84
2022/03/06 02:33:32;;;;;;;53.42;25.88;;;1.50;90.20;;;-1.46;94.38;101298.53;4990302;28;20044;-84
2022/03/06 02:35:59;;;;;;;53.90;27.05;;;1.40;90.10;;;-1.49;94.57;101304.88;4989874;28;20050;-84
2022/03/06 02:38:28;;;;;;;60.10;27.13;;;1.40;90.20;;;-1.45;94.90;101297.56;4990586;28;20049;-84
2022/03/06 02:40:55;;;;;;;51.17;26.30;;;1.40;90.30;;;-1.39;94.85;101297.19;4990128;28;20046;-84
2022/03/06 02:43:23;;;;;;;52.75;25.67;;;1.40;90.50;;;-1.33;95.23;101287.97;4990826;28;20403;-84
2022/03/06 02:45:50;;;;;;;48.42;26.17;;;1.40;90.70;;;-1.30;95.27;101283.31;4988695;28;20051;-84
2022/03/06 02:48:19;;;;;;;56.70;26.40;;;1.50;90.90;;;-1.35;95.23;101280.09;4990398;28;20038;-84
2022/03/06 02:50:46;;;;;;;51.88;25.38;;;1.40;90.70;;;-1.35;94.54;101285.44;4990326;28;20065;-85
2022/03/06 02:53:14;;;;;;;52.35;25.30;;;1.40;90.60;;;-1.29;94.47;101294.88;4990752;28;20081;-84
2022/03/06 02:55:43;;;;;;;50.28;25.52;;;1.40;90.60;;;-1.41;94.69;101285.75;4990111;28;20057;-84
2022/03/06 02:58:11;;;;;;;52.45;26.10;;;1.40;90.50;;;-1.54;95.32;101295.41;4990347;28;20234;-84
2022/03/06 03:00:38;;;;;;;49.35;24.63;;;1.40;90.70;;;-1.55;95.37;101283.03;4989650;28;20046;-85
2022/03/06 03:03:05;;;;;;;51.45;24.27;;;1.40;90.70;;;-1.47;94.91;101286.13;4990302;28;20140;-84
2022/03/06 03:05:33;;;;;;;56.13;26.15;;;1.40;90.80;;;-1.50;95.54;101288.97;4989971;28;20057;-84
2022/03/06 03:08:00;;;;;;;53.65;25.02;;;1.30;90.90;;;-1.53;95.56;101291.81;4990371;28;20153;-84
2022/03/06 03:10:28;;;;;;;45.75;24.42;;;1.30;91.10;;;-1.56;95.51;101276.84;4989790;28;20072;-84
2022/03/06 03:12:57;;;;;;;51.05;26.25;;;1.30;91.00;;;-1.57;95.70;101283.13;4972097;28;20106;-84
2022/03/06 03:15:24;;;;;;;50.30;24.48;;;1.30;91.00;;;-1.66;95.50;101281.81;4990130;28;20117;-84
2022/03/06 03:17:52;;;;;;;53.13;25.38;;;1.20;90.70;;;-1.70;96.06;101285.59;4971961;28;20050;-83
2022/03/06 03:20:21;;;;;;;50.65;24.95;;;1.30;91.00;;;-1.68;95.60;101289.06;4972389;28;20074;-84
2022/03/06 03:22:48;;;;;;;45.25;23.90;;;1.20;90.80;;;-1.74;95.91;101283.22;4990646;28;20038;-84
2022/03/06 03:25:15;;;;;;;52.05;24.95;;;1.40;90.90;;;-1.83;95.88;101289.91;4989959;28;20278;-84
2022/03/06 03:27:43;;;;;;;50.05;24.30;;;1.20;90.80;;;-1.77;96.51;101289.59;4989932;28;20050;-84
2022/03/06 03:30:12;;;;;;;46.00;24.38;;;1.20;91.00;;;-1.78;96.08;101299.38;4990041;28;20169;-84
2022/03/06 03:32:39;;;;;;;52.17;23.27;;;1.20;91.10;;;-1.82;96.74;101288.97;4989627;28;20046;-84
2022/03/06 03:35:08;;;;;;;44.45;23.58;;;1.10;91.20;;;-1.85;96.52;101297.16;4987992;28;20038;-84
2022/03/06 03:37:36;;;;;;;49.40;24.35;;;1.10;91.30;;;-1.90;96.25;101299.22;4990202;28;20124;-84
2022/03/06 03:40:06;;;;;;;54.42;24.80;;;1.10;91.20;;;-1.89;96.94;101300.94;4989650;28;20045;-84
2022/03/06 03:42:33;;;;;;;50.67;25.00;;;1.10;91.40;;;-1.91;96.59;101302.81;4990420;28;20044;-84
2022/03/06 03:45:00;;;;;;;50.47;24.90;;;1.10;91.50;;;-1.97;96.75;101291.53;4989423;28;20137;-84
2022/03/06 03:47:29;;;;;;;51.38;24.65;;;1.00;91.40;;;-1.95;97.22;101301.28;4989790;28;20042;-84
2022/03/06 03:49:56;;;;;;;50.53;23.88;;;1.00;91.70;;;-1.94;97.12;101308.31;4989714;28;20362;-85
2022/03/06 03:52:23;;;;;;;50.50;24.85;;;1.00;91.80;;;-1.99;97.44;101309.44;4989913;28;20141;-84
2022/03/06 03:54:50;;;;;;;48.83;25.33;;;1.00;91.90;;;-1.97;97.53;101304.03;5008196;22;20110;-89
2022/03/06 03:57:18;;;;;;;51.85;25.35;;;1.00;92.00;;;-1.91;97.48;101300.16;4989226;28;20121;-90
2022/03/06 03:59:45;;;;;;;51.22;25.67;;;1.00;92.10;;;-1.87;97.73;101291.03;4988602;28;20121;-90
2022/03/06 04:02:12;;;;;;;48.40;24.67;;;1.00;92.10;;;-1.85;98.31;101302.47;4988624;28;20031;-90
2022/03/06 04:04:41;;;;;;;48.15;23.70;;;1.00;92.30;;;-1.89;98.16;101301.78;4989455;28;20077;-92
2022/03/06 04:07:08;;;;;;;51.47;24.80;;;1.00;92.30;;;-1.89;98.16;101299.13;4989269;28;20129;-90
2022/03/06 04:09:36;;;;;;;51.42;25.92;;;1.00;92.50;;;-1.93;98.53;101304.72;4988982;28;20604;-90
2022/03/06 04:12:04;;;;;;;57.88;26.77;;;1.00;92.50;;;-1.88;98.26;101302.66;4988945;28;20046;-89
2022/03/06 04:14:32;;;;;;;52.28;25.05;;;1.00;92.60;;;-1.83;99.02;101305.91;4989492;28;20068;-89
2022/03/06 04:16:59;;;;;;;49.45;24.17;;;1.00;92.70;;;-1.79;98.85;101302.13;4989182;28;20500;-89
2022/03/06 04:19:26;;;;;;;47.92;24.52;;;1.00;92.80;;;-1.82;98.22;101307.66;4989091;28;20539;-89
2022/03/06 04:21:55;;;;;;;47.35;23.15;;;1.00;92.70;;;-1.85;98.36;101313.16;4988739;28;20034;-89
2022/03/06 04:24:22;;;;;;;53.45;25.48;;;1.00;92.70;;;-1.79;99.15;101310.13;4989695;28;20132;-89
2022/03/06 04:26:49;;;;;;;50.67;23.98;;;1.00;93.10;;;-1.67;98.71;101313.94;4989113;28;20046;-90
2022/03/06 04:29:17;;;;;;;49.85;24.08;;;1.00;93.30;;;-1.69;98.11;101316.69;4990380;28;20077;-90
2022/03/06 04:31:44;;;;;;;54.25;24.88;;;1.00;93.20;;;-1.70;98.66;101325.63;4992714;28;20038;-90
2022/03/06 04:34:11;;;;;;;48.40;24.85;;;1.00;93.20;;;-1.60;98.68;101318.84;4992343;28;20050;-89
2022/03/06 04:36:38;;;;;;;50.05;23.67;;;1.00;93.40;;;-1.55;98.40;101329.25;4992674;28;20056;-89
2022/03/06 04:39:07;;;;;;;47.55;24.63;;;1.00;93.60;;;-1.55;98.42;101336.41;4992883;28;20081;-89
2022/03/06 04:41:35;;;;;;;51.40;23.70;;;1.00;93.60;;;-1.63;98.33;101321.69;4991892;28;20092;-91
2022/03/06 04:44:02;;;;;;;51.47;25.25;;;1.00;93.70;;;-1.53;99.34;101339.84;4992369;28;20185;-90
2022/03/06 04:46:29;;;;;;;49.13;23.42;;;1.00;94.00;;;-1.53;98.97;101339.84;4992420;28;20070;-90
2022/03/06 04:48:56;;;;;;;48.13;24.63;;;1.10;94.00;;;-1.58;98.93;101338.31;4992450;28;20579;-90
2022/03/06 04:51:24;;;;;;;46.95;22.80;;;1.10;93.90;;;-1.52;99.09;101341.56;4992156;28;20130;-89
2022/03/06 04:53:51;;;;;;;49.40;23.45;;;1.10;93.90;;;-1.62;98.44;101342.09;4992559;28;20108;-90
2022/03/06 04:56:20;;;;;;;48.58;22.77;;;1.10;93.50;;;-1.60;98.72;101339.31;4955603;28;20069;-90
2022/03/06 04:58:47;;;;;;;48.97;24.13;;;1.10;93.80;;;-1.54;98.94;101338.13;4991910;28;20132;-90
2022/03/06 05:01:14;;;;;;;48.08;23.25;;;1.10;94.00;;;-1.53;98.44;101340.72;4991522;28;20488;-89
2022/03/06 05:03:41;;;;;;;45.85;22.88;;;1.10;93.80;;;-1.63;98.38;101339.50;4992602;28;20046;-90
2022/03/06 05:06:08;;;;;;;48.95;23.67;;;1.10;93.60;;;-1.60;99.22;101334.00;4991734;28;20142;-89
2022/03/06 05:08:36;;;;;;;49.53;23.92;;;1.10;93.70;;;-1.60;98.88;101339.31;4992068;28;20045;-91
2022/03/06 05:11:04;;;;;;;51.90;23.75;;;1.10;93.50;;;-1.58;98.53;101338.31;4991867;28;20042;-90
2022/03/06 05:13:33;;;;;;;41.88;22.35;;;1.10;93.30;;;-1.59;98.26;101338.38;4992018;28;20120;-90
2022/03/06 05:16:00;;;;;;;44.88;22.77;;;1.10;93.30;;;-1.61;98.09;101343.81;4990497;28;20056;-89
2022/03/06 05:18:27;;;;;;;45.53;23.13;;;1.10;93.30;;;-1.70;98.04;101344.31;4990547;28;20054;-89
2022/03/06 05:20:54;;;;;;;46.85;23.58;;;1.10;93.10;;;-1.76;98.30;101347.34;4991680;28;20515;-90
2022/03/06 05:23:22;;;;;;;47.35;23.80;;;1.00;93.20;;;-1.80;97.67;101343.97;4971185;28;20065;-90
2022/03/06 05:25:49;;;;;;;47.88;23.85;;;1.00;93.20;;;-1.75;98.47;101343.72;4983869;28;20055;-90
2022/03/06 05:28:17;;;;;;;45.42;23.42;;;1.00;93.20;;;-1.78;98.15;101335.88;4992128;28;20049;-89
2022/03/06 05:30:45;;;;;;;46.05;23.83;;;1.00;93.30;;;-1.75;98.26;101341.06;4991257;28;20471;-90
2022/03/06 05:33:13;;;;;;;43.53;22.98;;;1.00;93.20;;;-1.72;97.84;101340.88;4991318;28;20535;-89
2022/03/06 05:35:40;;;;;;;46.95;23.67;;;0.90;93.30;;;-1.73;97.90;101343.63;4991831;28;20121;-90
2022/03/06 05:38:07;;;;;;;49.08;23.85;;;0.90;93.20;;;-1.82;97.61;101347.69;4991371;28;20064;-90
2022/03/06 05:40:34;;;;;;;44.67;23.80;;;0.90;93.00;;;-1.83;97.93;101343.28;4990336;28;20409;-89
2022/03/06 05:43:02;;;;;;;48.10;24.50;;;0.90;93.30;;;-1.85;97.91;101354.03;4991156;28;20046;-90
2022/03/06 05:45:29;;;;;;;46.20;22.88;;;0.90;93.10;;;-1.97;97.46;101357.38;4990972;28;20047;-89
2022/03/06 05:47:58;;;;;;;45.90;22.98;;;0.90;92.80;;;-1.95;98.13;101354.63;4973619;28;20484;-91
2022/03/06 05:50:26;;;;;;;48.83;24.38;;;0.90;93.20;;;-2.04;98.01;101359.50;4990746;28;20043;-92
2022/03/06 05:52:53;;;;;;;46.50;23.35;;;0.80;93.10;;;-2.15;98.42;101359.25;4991281;28;20040;-92
2022/03/06 05:55:20;;;;;;;42.92;22.98;;;0.80;93.00;;;-2.17;98.35;101369.09;4991117;28;20125;-90
2022/03/06 05:57:47;;;;;;;45.67;22.38;;;0.70;93.20;;;-2.17;98.99;101377.97;4991005;28;20046;-91
2022/03/06 06:00:17;;;;;;;46.42;22.50;;;0.70;93.50;;;-2.17;98.93;101377.09;4991251;28;20129;-89
2022/03/06 06:02:45;;;;;;;48.15;23.05;;;0.70;93.60;;;-2.09;98.95;101390.91;4991638;28;20038;-89
2022/03/06 06:05:15;;;;;;;46.00;23.42;;;0.70;93.50;;;-2.17;98.65;101393.97;4990063;28;20065;-88
2022/03/06 06:07:42;;;;;;;48.47;22.98;;;0.70;93.50;;;-2.23;98.92;101399.63;4973062;28;20476;-90
2022/03/06 06:10:11;;;;;;;44.92;23.55;;;0.60;93.40;;;-2.16;99.37;101401.00;4990544;28;20042;-89
2022/03/06 06:12:38;;;;;;;43.78;22.77;;;0.70;93.70;;;-2.27;98.92;101407.88;4990580;28;20038;-88
2022/03/06 06:15:07;;;;;;;44.53;21.88;;;0.60;93.40;;;-2.31;99.60;101407.16;4990854;28;20042;-87
2022/03/06 06:17:34;;;;;;;45.17;22.83;;;0.60;93.60;;;-2.29;99.54;101415.06;4973278;28;20141;-87
2022/03/06 06:20:01;;;;;;;44.17;22.55;;;0.60;93.70;;;-2.38;99.40;101411.97;4990433;28;20046;-88
2022/03/06 06:22:31;;;;;;;45.58;22.88;;;0.60;93.60;;;-2.40;99.73;101412.97;4989541;28;20053;-88
2022/03/06 06:24:58;;;;;;;42.55;22.95;;;0.50;93.70;;;-2.29;99.90;101421.25;4990667;28;20120;-89
2022/03/06 06:27:26;;;;;;;41.58;22.60;;;0.60;93.90;;;-2.22;99.93;101413.81;4990612;28;20038;-87
2022/03/06 06:29:54;;;;;;;47.83;23.98;;;0.60;93.90;;;-2.10;99.91;101415.84;4972542;28;20065;-87
2022/03/06 06:32:22;;;;;;;45.20;23.63;;;0.60;94.20;;;-1.97;99.59;101419.56;4990806;28;20073;-88
2022/03/06 06:34:50;;;;;;;42.50;22.80;;;0.80;94.50;;;-1.98;99.54;101422.31;4990294;28;20077;-87
2022/03/06 06:37:17;;;;;;;48.03;23.35;;;0.60;94.60;;;-1.99;99.76;101423.28;4990421;28;20112;-88
2022/03/06 06:39:46;;;;;;;43.03;22.10;;;0.60;94.70;;;-2.01;100.00;101431.34;4990125;28;20131;-88
2022/03/06 06:42:13;;;;;;;44.38;22.13;;;0.60;94.70;;;-2.02;100.00;101429.66;4990420;28;20126;-86
2022/03/06 06:44:40;;;;;;;40.60;22.15;;;0.60;94.80;;;-2.03;100.00;101432.38;4972815;28;20064;-88
2022/03/06 06:47:08;;;;;;;41.67;22.58;;;0.70;95.00;;;-2.02;100.00;101434.97;4990288;28;20070;-88
2022/03/06 06:49:35;;;;;;;42.10;21.42;;;0.70;95.00;;;-1.97;100.00;101427.56;4990063;28;20479;-88
2022/03/06 06:52:02;;;;;;;47.38;23.50;;;0.70;95.10;;;-1.90;100.00;101438.81;4989387;28;20544;-88
2022/03/06 06:54:30;;;;;;;42.90;22.60;;;0.70;95.10;;;-1.69;100.00;101436.78;4989629;28;20471;-88
2022/03/06 06:56:58;;;;;;;42.67;23.63;;;0.70;95.30;;;-1.59;100.00;101437.16;4989717;28;20054;-88
2022/03/06 06:59:26;;;;;;;43.42;23.30;;;1.00;95.40;;;-1.47;99.38;101440.94;4989880;28;20121;-86
2022/03/06 07:01:53;;;;;;;41.42;22.90;;;0.90;95.20;;;-1.36;99.01;101445.72;4989568;28;20043;-88
2022/03/06 07:04:20;;;;;;;46.90;22.90;;;0.90;95.10;;;-1.29;98.66;101444.44;4990126;28;20459;-87
2022/03/06 07:06:47;;;;;;;43.40;22.92;;;1.00;95.00;;;-1.19;97.81;101441.13;4972232;28;20529;-87
2022/03/06 07:09:14;;;;;;;42.75;23.05;;;1.10;94.60;;;-1.08;96.86;101447.69;4986975;28;20066;-87
2022/03/06 07:11:41;;;;;;;44.30;23.25;;;1.20;94.50;;;-0.95;97.00;101448.72;4989465;28;20141;-88
2022/03/06 07:14:10;;;;;;;46.17;23.42;;;1.20;94.50;;;-0.89;95.83;101448.38;4972389;28;20157;-87
2022/03/06 07:16:37;;;;;;;41.42;22.60;;;1.30;94.10;;;-0.76;94.72;101442.31;4988713;28;20070;-88
2022/03/06 07:19:05;;;;;;;43.20;22.95;;;1.30;93.70;;;-0.67;94.39;101458.66;4997262;28;20141;-88
2022/03/06 07:21:32;;;;;;;42.60;23.70;;;1.30;93.80;;;-0.54;93.73;101453.47;4989222;28;20074;-89
2022/03/06 07:23:59;;;;;;;42.03;21.98;;;1.50;93.60;;;-0.45;93.22;101449.41;4970742;28;20225;-88
2022/03/06 07:26:26;;;;;;;41.78;22.88;;;1.50;93.10;;;-0.34;92.87;101452.31;4987016;28;20042;-88
2022/03/06 07:28:53;;;;;;;49.50;23.90;;;1.60;92.90;;;-0.27;91.82;101450.13;4989759;28;20108;-89
2022/03/06 07:31:22;;;;;;;39.45;21.52;;;1.60;92.60;;;-0.11;91.37;101453.63;4975834;28;20501;-88
2022/03/06 07:33:49;;;;;;;44.20;22.67;;;1.70;92.50;;;0.09;90.61;101455.06;4989134;28;20050;-91
2022/03/06 07:36:17;;;;;;;40.30;21.83;;;1.80;92.20;;;0.26;89.78;101469.25;4988305;28;20041;-89
2022/03/06 07:38:45;;;;;;;38.88;21.30;;;1.80;92.00;;;0.39;89.45;101464.84;4987245;28;20052;-89
2022/03/06 07:41:13;;;;;;;40.25;21.70;;;1.90;91.90;;;0.48;88.81;101466.97;4989403;28;20046;-90
2022/03/06 07:43:40;;;;;;;35.42;20.80;;;2.00;91.60;;;0.62;89.50;101470.59;4968751;28;20398;-89
2022/03/06 07:46:08;;;;;;;38.38;21.60;;;2.10;91.70;;;0.71;88.00;101472.69;4970111;28;20047;-88
2022/03/06 07:48:36;;;;;;;37.10;21.42;;;2.20;91.40;;;0.78;87.41;101469.53;4981702;28;20074;-89
2022/03/06 07:51:04;;;;;;;39.05;22.17;;;2.30;91.10;;;0.88;87.85;101477.81;4989104;28;20148;-91
2022/03/06 07:53:32;;;;;;;39.25;20.98;;;2.30;91.00;;;0.91;86.61;101482.97;4989396;28;20053;-91
2022/03/06 07:55:59;;;;;;;35.78;20.70;;;2.40;90.90;;;0.96;86.79;101480.88;4971628;28;20070;-92
2022/03/06 07:58:26;;;;;;;38.45;21.90;;;2.50;90.60;;;1.01;85.83;101485.94;4987831;28;20129;-92
2022/03/06 08:00:54;;;;;;;38.83;21.88;;;2.50;90.50;;;1.05;86.68;101478.53;4989062;28;20124;-86
2022/03/06 08:03:21;;;;;;;36.05;19.58;;;2.70;90.60;;;1.08;85.58;101481.88;4988332;28;20057;-90
2022/03/06 08:05:50;;;;;;;37.90;20.08;;;2.70;90.50;;;1.16;85.84;101487.63;4993078;28;20088;-93
2022/03/06 08:08:17;;;;;;;35.65;20.65;;;2.70;89.90;;;1.26;85.69;101479.00;4972295;28;20113;-90
2022/03/06 08:10:45;;;;;;;35.80;20.92;;;2.80;89.80;;;1.29;84.30;101486.81;4973562;28;20057;-90
2022/03/06 08:13:12;;;;;;;35.85;19.55;;;2.80;89.20;;;1.36;84.42;101477.41;4962166;28;20138;-90
2022/03/06 08:15:39;;;;;;;32.25;18.55;;;2.90;88.90;;;1.40;83.39;101489.66;4975286;28;20125;-88
2022/03/06 08:18:07;;;;;;;33.45;19.70;;;2.90;88.70;;;1.45;82.83;101490.22;4992545;28;20073;-87
2022/03/06 08:20:35;;;;;;;34.35;20.95;;;2.90;88.60;;;1.52;82.58;101485.28;4992738;28;20108;-89
2022/03/06 08:23:04;;;;;;;33.47;19.88;;;3.00;88.60;;;1.62;82.73;101488.22;4992812;28;20748;-88
2022/03/06 08:25:34;;;;;;;32.78;20.10;;;3.20;88.70;;;1.67;81.66;101491.47;4973486;28;20050;-88
2022/03/06 08:28:21;;;;;;;34.50;19.73;;;3.20;88.30;;;1.73;81.50;101491.03;4991932;28;20050;-92
2022/03/06 08:30:49;;;;;;;34.65;19.20;;;3.30;87.80;;;1.83;81.57;101500.22;4992607;28;20045;-89
2022/03/06 08:33:17;;;;;;;34.38;19.98;;;3.40;87.20;;;1.88;80.71;101492.69;4973925;28;20432;-85
2022/03/06 08:35:44;;;;;;;30.50;17.98;;;3.50;87.30;;;1.95;79.98;101493.16;4992814;28;20440;-86
2022/03/06 08:38:13;;;;;;;30.45;18.67;;;3.50;86.20;;;2.03;80.69;101493.47;4992152;28;20046;-87
2022/03/06 08:40:40;;;;;;;30.45;18.27;;;3.60;86.40;;;2.01;79.38;101505.28;4991753;28;20042;-87
2022/03/06 08:43:09;;;;;;;31.73;18.52;;;3.60;86.20;;;2.06;81.03;101498.66;4991786;28;20041;-86
2022/03/06 08:45:37;;;;;;;31.20;18.13;;;3.60;86.40;;;2.15;79.68;101502.50;4991970;28;20745;-86
2022/03/06 08:48:05;;;;;;;29.00;18.30;;;3.60;85.60;;;2.16;78.80;101496.19;4986745;28;20062;-83
2022/03/06 08:50:32;;;;;;;34.22;18.67;;;3.60;85.60;;;2.15;77.22;101503.38;4981615;28;20058;-81
2022/03/06 08:52:59;;;;;;;34.55;19.05;;;3.70;85.60;;;2.21;78.62;101501.22;4974474;28;20548;-82
2022/03/06 08:55:29;;;;;;;33.55;18.58;;;3.70;85.20;;;2.16;77.50;101504.25;4980429;28;20125;-81
2022/03/06 08:57:56;;;;;;;35.10;18.88;;;3.70;85.20;;;2.20;77.23;101511.13;4985732;28;20143;-84
2022/03/06 09:00:23;;;;;;;33.10;18.60;;;3.80;84.60;;;2.17;76.57;101505.97;4991713;28;20129;-84
2022/03/06 09:02:50;;;;;;;30.83;18.27;;;3.80;84.00;;;2.21;77.35;101509.28;4990327;28;20116;-86
2022/03/06 09:05:20;;;;;;;30.25;18.08;;;3.80;83.90;;;2.25;76.52;101508.97;4961990;28;20124;-88
2022/03/06 09:07:50;;;;;;;32.50;19.10;;;3.90;84.20;;;2.32;76.88;101506.72;4990909;28;20044;-90
2022/03/06 09:10:20;;;;;;;32.42;18.13;;;3.90;84.40;;;2.42;76.68;101520.34;4995584;28;20037;-90
2022/03/06 09:12:48;;;;;;;30.00;17.60;;;3.90;84.40;;;2.33;75.66;101516.50;4991726;28;20423;-87
2022/03/06 09:15:16;;;;;;;28.30;17.75;;;4.00;83.40;;;2.31;75.87;101519.28;4988051;28;20042;-89
2022/03/06 09:17:43;;;;;;;30.02;17.92;;;4.00;83.20;;;2.27;74.18;101517.78;4988314;28;20033;-89
2022/03/06 09:20:12;;;;;;;29.45;17.73;;;4.00;82.70;;;2.18;74.20;101507.69;4998169;28;20093;-90
2022/03/06 09:22:39;;;;;;;29.30;17.45;;;4.00;82.30;;;2.28;75.81;101506.06;4987301;28;20137;-89
2022/03/06 09:25:07;;;;;;;28.02;16.70;;;4.00;82.60;;;2.37;75.06;101514.47;4988361;28;20463;-88
2022/03/06 09:27:35;;;;;;;31.83;17.67;;;4.00;82.90;;;2.45;74.71;101523.69;4989242;28;20532;-89
2022/03/06 09:30:05;;;;;;;27.98;17.65;;;4.00;83.10;;;2.51;75.42;101519.72;4989340;28;20129;-90
2022/03/06 09:32:33;;;;;;;32.03;17.80;;;4.10;83.00;;;2.58;74.66;101520.16;4989990;28;20046;-90
2022/03/06 09:35:00;;;;;;;30.08;17.02;;;4.10;83.40;;;2.60;74.29;101516.38;4970416;28;20046;-89
2022/03/06 09:37:28;;;;;;;28.92;17.35;;;4.20;83.00;;;2.66;75.68;101517.78;4985331;28;20044;-88
2022/03/06 09:40:04;;;;;;;30.02;17.30;;;4.20;82.60;;;2.68;75.12;101511.31;4995883;28;20074;-95
2022/03/06 09:42:41;;;;;;;28.80;18.45;;;4.20;82.50;;;2.66;73.96;101507.88;4992190;28;20065;-89
2022/03/06 09:45:13;;;;;;;31.08;17.80;;;4.30;82.50;;;2.66;74.01;101517.78;4992095;28;20129;-89
2022/03/06 09:47:45;;;;;;;31.38;17.48;;;4.30;82.40;;;2.68;74.50;101521.22;4988543;28;20592;-92
2022/03/06 09:50:15;;;;;;;30.70;17.88;;;4.30;82.30;;;2.60;72.90;101513.72;4972587;28;20077;-93
2022/03/06 09:52:44;;;;;;;29.00;17.85;;;4.30;82.00;;;2.61;73.68;101520.81;4974326;28;20039;-92
2022/03/06 09:55:12;;;;;;;28.67;17.80;;;4.30;82.10;;;2.65;74.64;101508.88;4991258;28;20038;-91
2022/03/06 09:57:41;;;;;;;29.77;18.27;;;4.40;82.40;;;2.70;73.80;101514.78;5033450;23;20078;-90
2022/03/06 10:00:12;;;;;;;30.20;17.75;;;4.30;82.20;;;2.75;73.91;101522.50;4970677;28;20070;-89
2022/03/06 10:02:57;;;;;;;30.35;17.83;;;4.40;82.30;;;2.80;73.40;101519.47;4969752;28;20109;-89
2022/03/06 10:05:30;;;;;;;27.15;17.48;;;4.40;81.70;;;2.84;73.55;101521.00;4969266;28;20050;-90
2022/03/06 10:08:25;;;;;;;28.65;17.25;;;4.50;81.90;;;2.90;73.47;101517.88;4976273;28;20043;-90
2022/03/06 10:10:57;;;;;;;27.33;16.02;;;4.50;81.70;;;2.90;71.77;101517.88;4941641;28;20060;-90